sensor_id;sensor_type;location;lat;lon;timestamp;P1;durP1;ratioP1;P2;durP2;ratioP2
18716;SDS011;9487;50.892;6.906;2023-07-24T00:00:49;4.77;;;3.50;;
18716;SDS011;9487;50.892;6.906;2023-07-24T00:03:16;3.40;;;3.10;;
18716;SDS011;9487;50.892;6.906;2023-07-24T00:05:45;3.70;;;3.30;;
18716;SDS011;9487;50.892;6.906;2023-07-24T00:08:12;4.73;;;3.70;;
18716;SDS011;9487;50.892;6.906;2023-07-24T00:10:38;3.80;;;3.50;;
18716;SDS011;9487;50.892;6.906;2023-07-24T00:13:06;3.43;;;3.10;;
18716;SDS011;9487;50.892;6.906;2023-07-24T00:15:33;3.50;;;3.20;;
18716;SDS011;9487;50.892;6.906;2023-07-24T00:18:00;3.43;;;3.13;;
18716;SDS011;9487;50.892;6.906;2023-07-24T00:20:27;3.43;;;2.93;;
18716;SDS011;9487;50.892;6.906;2023-07-24T00:22:55;4.90;;;3.23;;
18716;SDS011;9487;50.892;6.906;2023-07-24T00:25:22;3.33;;;3.10;;
18716;SDS011;9487;50.892;6.906;2023-07-24T00:27:49;3.90;;;3.43;;
18716;SDS011;9487;50.892;6.906;2023-07-24T00:30:16;4.10;;;3.50;;
18716;SDS011;9487;50.892;6.906;2023-07-24T00:32:43;3.63;;;3.27;;
18716;SDS011;9487;50.892;6.906;2023-07-24T00:35:10;4.00;;;3.60;;
18716;SDS011;9487;50.892;6.906;2023-07-24T00:37:40;4.77;;;3.63;;
18716;SDS011;9487;50.892;6.906;2023-07-24T00:40:10;3.40;;;3.03;;
18716;SDS011;9487;50.892;6.906;2023-07-24T00:42:37;4.40;;;3.20;;
18716;SDS011;9487;50.892;6.906;2023-07-24T00:45:04;3.27;;;2.97;;
18716;SDS011;9487;50.892;6.906;2023-07-24T00:47:34;3.73;;;3.17;;
18716;SDS011;9487;50.892;6.906;2023-07-24T00:50:01;3.40;;;3.10;;
18716;SDS011;9487;50.892;6.906;2023-07-24T00:52:28;3.90;;;3.50;;
18716;SDS011;9487;50.892;6.906;2023-07-24T00:54:55;3.50;;;3.20;;
18716;SDS011;9487;50.892;6.906;2023-07-24T00:57:24;4.53;;;3.50;;
18716;SDS011;9487;50.892;6.906;2023-07-24T00:59:51;6.20;;;3.80;;
18716;SDS011;9487;50.892;6.906;2023-07-24T01:02:18;4.30;;;3.50;;
18716;SDS011;9487;50.892;6.906;2023-07-24T01:04:45;3.60;;;3.30;;
18716;SDS011;9487;50.892;6.906;2023-07-24T01:07:13;4.37;;;3.53;;
18716;SDS011;9487;50.892;6.906;2023-07-24T01:09:41;3.70;;;3.40;;
18716;SDS011;9487;50.892;6.906;2023-07-24T01:12:13;4.07;;;3.30;;
18716;SDS011;9487;50.892;6.906;2023-07-24T01:14:51;3.80;;;3.47;;
18716;SDS011;9487;50.892;6.906;2023-07-24T01:17:24;3.50;;;3.20;;
18716;SDS011;9487;50.892;6.906;2023-07-24T01:19:55;3.40;;;3.10;;
18716;SDS011;9487;50.892;6.906;2023-07-24T01:22:27;3.97;;;3.57;;
18716;SDS011;9487;50.892;6.906;2023-07-24T01:25:05;3.47;;;3.17;;
18716;SDS011;9487;50.892;6.906;2023-07-24T01:27:41;3.57;;;3.27;;
18716;SDS011;9487;50.892;6.906;2023-07-24T01:30:09;3.43;;;3.13;;
18716;SDS011;9487;50.892;6.906;2023-07-24T01:32:36;3.87;;;3.27;;
18716;SDS011;9487;50.892;6.906;2023-07-24T01:35:04;3.50;;;3.20;;
18716;SDS011;9487;50.892;6.906;2023-07-24T01:37:34;3.53;;;3.23;;
18716;SDS011;9487;50.892;6.906;2023-07-24T01:40:05;3.93;;;3.63;;
18716;SDS011;9487;50.892;6.906;2023-07-24T01:42:33;3.80;;;3.13;;
18716;SDS011;9487;50.892;6.906;2023-07-24T01:45:04;4.80;;;3.70;;
18716;SDS011;9487;50.892;6.906;2023-07-24T01:47:32;3.80;;;3.33;;
18716;SDS011;9487;50.892;6.906;2023-07-24T01:49:59;4.77;;;3.70;;
18716;SDS011;9487;50.892;6.906;2023-07-24T01:52:26;5.83;;;4.20;;
18716;SDS011;9487;50.892;6.906;2023-07-24T01:54:54;3.87;;;3.57;;
18716;SDS011;9487;50.892;6.906;2023-07-24T01:57:21;4.47;;;3.70;;
18716;SDS011;9487;50.892;6.906;2023-07-24T01:59:47;4.17;;;3.77;;
18716;SDS011;9487;50.892;6.906;2023-07-24T02:02:16;3.87;;;3.47;;
18716;SDS011;9487;50.892;6.906;2023-07-24T02:04:43;4.80;;;3.77;;
18716;SDS011;9487;50.892;6.906;2023-07-24T02:07:12;4.73;;;4.10;;
18716;SDS011;9487;50.892;6.906;2023-07-24T02:09:38;4.67;;;4.00;;
18716;SDS011;9487;50.892;6.906;2023-07-24T02:12:06;4.40;;;3.90;;
18716;SDS011;9487;50.892;6.906;2023-07-24T02:14:33;5.60;;;4.03;;
18716;SDS011;9487;50.892;6.906;2023-07-24T02:16:59;4.83;;;4.10;;
18716;SDS011;9487;50.892;6.906;2023-07-24T02:19:28;4.90;;;4.00;;
18716;SDS011;9487;50.892;6.906;2023-07-24T02:21:55;5.53;;;4.07;;
18716;SDS011;9487;50.892;6.906;2023-07-24T02:24:22;8.23;;;4.23;;
18716;SDS011;9487;50.892;6.906;2023-07-24T02:26:48;5.10;;;4.07;;
18716;SDS011;9487;50.892;6.906;2023-07-24T02:29:15;5.93;;;4.13;;
18716;SDS011;9487;50.892;6.906;2023-07-24T02:31:42;4.47;;;3.87;;
18716;SDS011;9487;50.892;6.906;2023-07-24T02:34:09;5.80;;;4.73;;
18716;SDS011;9487;50.892;6.906;2023-07-24T02:36:37;5.30;;;4.33;;
18716;SDS011;9487;50.892;6.906;2023-07-24T02:39:06;4.77;;;4.27;;
18716;SDS011;9487;50.892;6.906;2023-07-24T02:41:33;4.63;;;4.00;;
18716;SDS011;9487;50.892;6.906;2023-07-24T02:44:00;5.47;;;4.30;;
18716;SDS011;9487;50.892;6.906;2023-07-24T02:46:28;4.50;;;3.97;;
18716;SDS011;9487;50.892;6.906;2023-07-24T02:48:55;4.50;;;4.10;;
18716;SDS011;9487;50.892;6.906;2023-07-24T02:51:22;4.77;;;4.30;;
18716;SDS011;9487;50.892;6.906;2023-07-24T02:53:51;4.53;;;4.13;;
18716;SDS011;9487;50.892;6.906;2023-07-24T02:56:20;4.23;;;3.87;;
18716;SDS011;9487;50.892;6.906;2023-07-24T02:58:46;4.90;;;4.40;;
18716;SDS011;9487;50.892;6.906;2023-07-24T03:01:13;5.00;;;4.10;;
18716;SDS011;9487;50.892;6.906;2023-07-24T03:03:40;5.00;;;4.20;;
18716;SDS011;9487;50.892;6.906;2023-07-24T03:06:08;5.97;;;4.20;;
18716;SDS011;9487;50.892;6.906;2023-07-24T03:08:35;4.40;;;4.00;;
18716;SDS011;9487;50.892;6.906;2023-07-24T03:11:05;5.90;;;4.53;;
18716;SDS011;9487;50.892;6.906;2023-07-24T03:13:35;4.77;;;4.33;;
18716;SDS011;9487;50.892;6.906;2023-07-24T03:16:02;6.10;;;4.43;;
18716;SDS011;9487;50.892;6.906;2023-07-24T03:18:29;5.23;;;4.43;;
18716;SDS011;9487;50.892;6.906;2023-07-24T03:20:57;5.87;;;4.93;;
18716;SDS011;9487;50.892;6.906;2023-07-24T03:23:24;6.90;;;4.57;;
18716;SDS011;9487;50.892;6.906;2023-07-24T03:25:51;7.07;;;4.50;;
18716;SDS011;9487;50.892;6.906;2023-07-24T03:28:19;5.70;;;4.60;;
18716;SDS011;9487;50.892;6.906;2023-07-24T03:30:46;6.53;;;4.80;;
18716;SDS011;9487;50.892;6.906;2023-07-24T03:33:13;4.33;;;3.93;;
18716;SDS011;9487;50.892;6.906;2023-07-24T03:35:40;4.40;;;4.00;;
18716;SDS011;9487;50.892;6.906;2023-07-24T03:38:07;5.50;;;4.03;;
18716;SDS011;9487;50.892;6.906;2023-07-24T03:40:34;6.43;;;4.40;;
18716;SDS011;9487;50.892;6.906;2023-07-24T03:43:03;4.80;;;4.40;;
18716;SDS011;9487;50.892;6.906;2023-07-24T03:45:32;7.03;;;4.10;;
18716;SDS011;9487;50.892;6.906;2023-07-24T03:47:59;5.13;;;4.60;;
18716;SDS011;9487;50.892;6.906;2023-07-24T03:50:26;4.83;;;4.40;;
18716;SDS011;9487;50.892;6.906;2023-07-24T03:52:55;6.03;;;4.30;;
18716;SDS011;9487;50.892;6.906;2023-07-24T03:55:21;4.97;;;4.53;;
18716;SDS011;9487;50.892;6.906;2023-07-24T03:57:48;4.80;;;4.20;;
18716;SDS011;9487;50.892;6.906;2023-07-24T04:00:15;6.10;;;4.60;;
18716;SDS011;9487;50.892;6.906;2023-07-24T04:02:45;5.40;;;4.90;;
18716;SDS011;9487;50.892;6.906;2023-07-24T04:05:13;5.17;;;4.63;;
18716;SDS011;9487;50.892;6.906;2023-07-24T04:07:40;4.73;;;4.30;;
18716;SDS011;9487;50.892;6.906;2023-07-24T04:10:07;4.97;;;4.57;;
18716;SDS011;9487;50.892;6.906;2023-07-24T04:12:34;4.30;;;3.97;;
18716;SDS011;9487;50.892;6.906;2023-07-24T04:15:01;5.93;;;5.07;;
18716;SDS011;9487;50.892;6.906;2023-07-24T04:17:28;5.70;;;5.00;;
18716;SDS011;9487;50.892;6.906;2023-07-24T04:19:56;6.23;;;4.90;;
18716;SDS011;9487;50.892;6.906;2023-07-24T04:22:23;5.23;;;4.60;;
18716;SDS011;9487;50.892;6.906;2023-07-24T04:24:51;6.37;;;4.93;;
18716;SDS011;9487;50.892;6.906;2023-07-24T04:27:18;6.50;;;4.93;;
18716;SDS011;9487;50.892;6.906;2023-07-24T04:29:45;5.20;;;4.70;;
18716;SDS011;9487;50.892;6.906;2023-07-24T04:32:12;6.50;;;4.93;;
18716;SDS011;9487;50.892;6.906;2023-07-24T04:34:39;5.50;;;4.93;;
18716;SDS011;9487;50.892;6.906;2023-07-24T04:37:07;5.73;;;4.60;;
18716;SDS011;9487;50.892;6.906;2023-07-24T04:39:34;5.63;;;5.03;;
18716;SDS011;9487;50.892;6.906;2023-07-24T04:42:01;5.60;;;4.57;;
18716;SDS011;9487;50.892;6.906;2023-07-24T04:44:28;5.50;;;5.00;;
18716;SDS011;9487;50.892;6.906;2023-07-24T04:46:57;5.20;;;4.70;;
18716;SDS011;9487;50.892;6.906;2023-07-24T04:49:23;6.87;;;4.60;;
18716;SDS011;9487;50.892;6.906;2023-07-24T04:51:51;5.83;;;4.47;;
18716;SDS011;9487;50.892;6.906;2023-07-24T04:54:19;5.43;;;4.93;;
18716;SDS011;9487;50.892;6.906;2023-07-24T04:56:46;5.17;;;4.33;;
18716;SDS011;9487;50.892;6.906;2023-07-24T04:59:13;5.90;;;4.63;;
18716;SDS011;9487;50.892;6.906;2023-07-24T05:01:39;5.50;;;5.00;;
18716;SDS011;9487;50.892;6.906;2023-07-24T05:04:06;5.10;;;4.60;;
18716;SDS011;9487;50.892;6.906;2023-07-24T05:06:33;5.33;;;4.77;;
18716;SDS011;9487;50.892;6.906;2023-07-24T05:09:02;5.90;;;4.90;;
18716;SDS011;9487;50.892;6.906;2023-07-24T05:11:30;7.70;;;4.60;;
18716;SDS011;9487;50.892;6.906;2023-07-24T05:13:57;8.37;;;5.00;;
18716;SDS011;9487;50.892;6.906;2023-07-24T05:16:24;5.37;;;4.87;;
18716;SDS011;9487;50.892;6.906;2023-07-24T05:18:51;6.03;;;4.97;;
18716;SDS011;9487;50.892;6.906;2023-07-24T05:21:17;6.30;;;5.10;;
18716;SDS011;9487;50.892;6.906;2023-07-24T05:23:45;5.23;;;4.73;;
18716;SDS011;9487;50.892;6.906;2023-07-24T05:26:11;5.10;;;4.60;;
18716;SDS011;9487;50.892;6.906;2023-07-24T05:28:40;5.33;;;4.67;;
18716;SDS011;9487;50.892;6.906;2023-07-24T05:31:08;5.93;;;4.60;;
18716;SDS011;9487;50.892;6.906;2023-07-24T05:33:34;4.60;;;4.20;;
18716;SDS011;9487;50.892;6.906;2023-07-24T05:36:02;5.70;;;4.40;;
18716;SDS011;9487;50.892;6.906;2023-07-24T05:38:29;5.03;;;4.53;;
18716;SDS011;9487;50.892;6.906;2023-07-24T05:40:57;5.30;;;4.80;;
18716;SDS011;9487;50.892;6.906;2023-07-24T05:43:24;5.47;;;4.97;;
18716;SDS011;9487;50.892;6.906;2023-07-24T05:45:53;5.90;;;4.93;;
18716;SDS011;9487;50.892;6.906;2023-07-24T05:48:20;5.93;;;4.60;;
18716;SDS011;9487;50.892;6.906;2023-07-24T05:50:48;5.50;;;5.00;;
18716;SDS011;9487;50.892;6.906;2023-07-24T05:53:14;6.27;;;4.70;;
18716;SDS011;9487;50.892;6.906;2023-07-24T05:55:41;7.27;;;4.80;;
18716;SDS011;9487;50.892;6.906;2023-07-24T05:58:09;6.83;;;5.57;;
18716;SDS011;9487;50.892;6.906;2023-07-24T06:00:36;5.57;;;4.93;;
18716;SDS011;9487;50.892;6.906;2023-07-24T06:03:04;6.70;;;5.20;;
18716;SDS011;9487;50.892;6.906;2023-07-24T06:05:31;5.77;;;4.90;;
18716;SDS011;9487;50.892;6.906;2023-07-24T06:07:59;5.37;;;4.60;;
18716;SDS011;9487;50.892;6.906;2023-07-24T06:10:26;5.77;;;5.10;;
18716;SDS011;9487;50.892;6.906;2023-07-24T06:12:52;5.40;;;4.83;;
18716;SDS011;9487;50.892;6.906;2023-07-24T06:15:19;5.77;;;4.40;;
18716;SDS011;9487;50.892;6.906;2023-07-24T06:17:47;6.30;;;5.07;;
18716;SDS011;9487;50.892;6.906;2023-07-24T06:20:15;6.77;;;4.67;;
18716;SDS011;9487;50.892;6.906;2023-07-24T06:22:42;10.97;;;5.30;;
18716;SDS011;9487;50.892;6.906;2023-07-24T06:25:09;9.43;;;5.33;;
18716;SDS011;9487;50.892;6.906;2023-07-24T06:27:36;7.13;;;5.23;;
18716;SDS011;9487;50.892;6.906;2023-07-24T06:30:03;6.57;;;5.00;;
18716;SDS011;9487;50.892;6.906;2023-07-24T06:32:31;8.23;;;5.40;;
18716;SDS011;9487;50.892;6.906;2023-07-24T06:34:58;6.13;;;4.87;;
18716;SDS011;9487;50.892;6.906;2023-07-24T06:37:26;8.37;;;5.00;;
18716;SDS011;9487;50.892;6.906;2023-07-24T06:39:53;5.97;;;5.07;;
18716;SDS011;9487;50.892;6.906;2023-07-24T06:42:20;8.90;;;5.30;;
18716;SDS011;9487;50.892;6.906;2023-07-24T06:44:47;5.77;;;4.63;;
18716;SDS011;9487;50.892;6.906;2023-07-24T06:47:15;6.33;;;4.67;;
18716;SDS011;9487;50.892;6.906;2023-07-24T06:49:41;5.43;;;4.90;;
18716;SDS011;9487;50.892;6.906;2023-07-24T06:52:08;5.23;;;4.23;;
18716;SDS011;9487;50.892;6.906;2023-07-24T06:54:36;4.90;;;4.17;;
18716;SDS011;9487;50.892;6.906;2023-07-24T06:57:03;6.27;;;4.30;;
18716;SDS011;9487;50.892;6.906;2023-07-24T06:59:30;5.57;;;4.23;;
18716;SDS011;9487;50.892;6.906;2023-07-24T07:01:58;5.33;;;4.60;;
18716;SDS011;9487;50.892;6.906;2023-07-24T07:04:25;7.83;;;4.50;;
18716;SDS011;9487;50.892;6.906;2023-07-24T07:06:51;5.33;;;4.67;;
18716;SDS011;9487;50.892;6.906;2023-07-24T07:09:18;5.30;;;4.50;;
18716;SDS011;9487;50.892;6.906;2023-07-24T07:11:46;5.27;;;4.77;;
18716;SDS011;9487;50.892;6.906;2023-07-24T07:14:14;5.40;;;4.50;;
18716;SDS011;9487;50.892;6.906;2023-07-24T07:16:41;5.63;;;4.20;;
18716;SDS011;9487;50.892;6.906;2023-07-24T07:19:12;4.53;;;3.97;;
18716;SDS011;9487;50.892;6.906;2023-07-24T07:21:40;5.93;;;4.00;;
18716;SDS011;9487;50.892;6.906;2023-07-24T07:24:07;5.13;;;4.17;;
18716;SDS011;9487;50.892;6.906;2023-07-24T07:26:34;4.50;;;4.10;;
18716;SDS011;9487;50.892;6.906;2023-07-24T07:29:05;4.33;;;3.93;;
18716;SDS011;9487;50.892;6.906;2023-07-24T07:31:32;5.67;;;4.63;;
18716;SDS011;9487;50.892;6.906;2023-07-24T07:33:58;8.03;;;4.57;;
18716;SDS011;9487;50.892;6.906;2023-07-24T07:36:25;5.07;;;4.10;;
18716;SDS011;9487;50.892;6.906;2023-07-24T07:38:52;5.00;;;4.47;;
18716;SDS011;9487;50.892;6.906;2023-07-24T07:41:19;5.17;;;4.63;;
18716;SDS011;9487;50.892;6.906;2023-07-24T07:43:46;8.77;;;5.33;;
18716;SDS011;9487;50.892;6.906;2023-07-24T07:46:15;6.03;;;4.57;;
18716;SDS011;9487;50.892;6.906;2023-07-24T07:48:42;5.17;;;4.67;;
18716;SDS011;9487;50.892;6.906;2023-07-24T07:51:10;4.37;;;3.97;;
18716;SDS011;9487;50.892;6.906;2023-07-24T07:53:37;5.33;;;4.20;;
18716;SDS011;9487;50.892;6.906;2023-07-24T07:56:04;5.40;;;4.57;;
18716;SDS011;9487;50.892;6.906;2023-07-24T07:58:32;5.93;;;4.10;;
18716;SDS011;9487;50.892;6.906;2023-07-24T08:01:02;4.73;;;4.27;;
18716;SDS011;9487;50.892;6.906;2023-07-24T08:03:31;4.73;;;4.17;;
18716;SDS011;9487;50.892;6.906;2023-07-24T08:05:59;5.30;;;4.30;;
18716;SDS011;9487;50.892;6.906;2023-07-24T08:08:26;5.22;;;4.60;;
18716;SDS011;9487;50.892;6.906;2023-07-24T08:10:53;5.53;;;4.40;;
18716;SDS011;9487;50.892;6.906;2023-07-24T08:13:20;5.07;;;4.20;;
18716;SDS011;9487;50.892;6.906;2023-07-24T08:15:48;5.27;;;4.50;;
18716;SDS011;9487;50.892;6.906;2023-07-24T08:18:15;5.53;;;4.17;;
18716;SDS011;9487;50.892;6.906;2023-07-24T08:20:45;5.30;;;4.37;;
18716;SDS011;9487;50.892;6.906;2023-07-24T08:23:12;5.97;;;4.40;;
18716;SDS011;9487;50.892;6.906;2023-07-24T08:25:39;4.77;;;4.27;;
18716;SDS011;9487;50.892;6.906;2023-07-24T08:28:16;4.70;;;4.27;;
18716;SDS011;9487;50.892;6.906;2023-07-24T08:30:44;4.90;;;4.13;;
18716;SDS011;9487;50.892;6.906;2023-07-24T08:33:12;4.40;;;4.00;;
18716;SDS011;9487;50.892;6.906;2023-07-24T08:35:39;4.60;;;3.80;;
18716;SDS011;9487;50.892;6.906;2023-07-24T08:38:07;4.53;;;3.90;;
18716;SDS011;9487;50.892;6.906;2023-07-24T08:40:34;4.43;;;4.03;;
18716;SDS011;9487;50.892;6.906;2023-07-24T08:43:01;3.50;;;3.20;;
18716;SDS011;9487;50.892;6.906;2023-07-24T08:45:29;5.20;;;4.00;;
18716;SDS011;9487;50.892;6.906;2023-07-24T08:47:57;4.50;;;4.10;;
18716;SDS011;9487;50.892;6.906;2023-07-24T08:50:25;4.20;;;3.80;;
18716;SDS011;9487;50.892;6.906;2023-07-24T08:52:53;5.10;;;4.07;;
18716;SDS011;9487;50.892;6.906;2023-07-24T08:55:22;4.63;;;3.90;;
18716;SDS011;9487;50.892;6.906;2023-07-24T08:57:50;3.70;;;3.40;;
18716;SDS011;9487;50.892;6.906;2023-07-24T09:00:17;4.33;;;3.93;;
18716;SDS011;9487;50.892;6.906;2023-07-24T09:02:44;4.87;;;3.60;;
18716;SDS011;9487;50.892;6.906;2023-07-24T09:05:11;3.83;;;3.43;;
18716;SDS011;9487;50.892;6.906;2023-07-24T09:07:40;4.43;;;3.77;;
18716;SDS011;9487;50.892;6.906;2023-07-24T09:10:08;4.27;;;3.57;;
18716;SDS011;9487;50.892;6.906;2023-07-24T09:12:38;4.73;;;4.17;;
18716;SDS011;9487;50.892;6.906;2023-07-24T09:15:07;4.43;;;4.03;;
18716;SDS011;9487;50.892;6.906;2023-07-24T09:17:35;4.03;;;3.60;;
18716;SDS011;9487;50.892;6.906;2023-07-24T09:20:02;5.93;;;3.97;;
18716;SDS011;9487;50.892;6.906;2023-07-24T09:22:30;3.77;;;3.43;;
18716;SDS011;9487;50.892;6.906;2023-07-24T09:24:57;4.00;;;3.70;;
18716;SDS011;9487;50.892;6.906;2023-07-24T09:27:25;3.70;;;3.20;;
18716;SDS011;9487;50.892;6.906;2023-07-24T09:29:55;3.80;;;3.00;;
18716;SDS011;9487;50.892;6.906;2023-07-24T09:32:23;4.63;;;3.47;;
18716;SDS011;9487;50.892;6.906;2023-07-24T09:34:50;3.20;;;2.90;;
18716;SDS011;9487;50.892;6.906;2023-07-24T09:37:23;3.37;;;3.07;;
18716;SDS011;9487;50.892;6.906;2023-07-24T09:39:51;3.83;;;3.23;;
18716;SDS011;9487;50.892;6.906;2023-07-24T09:42:18;3.77;;;3.47;;
18716;SDS011;9487;50.892;6.906;2023-07-24T09:44:55;3.47;;;3.17;;
18716;SDS011;9487;50.892;6.906;2023-07-24T09:47:22;3.40;;;3.10;;
18716;SDS011;9487;50.892;6.906;2023-07-24T09:49:50;3.63;;;3.30;;
18716;SDS011;9487;50.892;6.906;2023-07-24T09:52:18;3.97;;;3.67;;
18716;SDS011;9487;50.892;6.906;2023-07-24T09:54:49;3.80;;;3.40;;
18716;SDS011;9487;50.892;6.906;2023-07-24T09:57:22;3.60;;;3.30;;
18716;SDS011;9487;50.892;6.906;2023-07-24T09:59:51;3.93;;;3.60;;
18716;SDS011;9487;50.892;6.906;2023-07-24T10:02:21;3.90;;;3.60;;
18716;SDS011;9487;50.892;6.906;2023-07-24T10:04:49;3.50;;;3.20;;
18716;SDS011;9487;50.892;6.906;2023-07-24T10:07:16;4.13;;;3.73;;
18716;SDS011;9487;50.892;6.906;2023-07-24T10:09:47;4.27;;;3.60;;
18716;SDS011;9487;50.892;6.906;2023-07-24T10:12:14;6.37;;;3.27;;
18716;SDS011;9487;50.892;6.906;2023-07-24T10:14:42;3.40;;;3.10;;
18716;SDS011;9487;50.892;6.906;2023-07-24T10:17:10;3.20;;;2.90;;
18716;SDS011;9487;50.892;6.906;2023-07-24T10:19:40;5.10;;;3.20;;
18716;SDS011;9487;50.892;6.906;2023-07-24T10:22:08;3.67;;;3.10;;
18716;SDS011;9487;50.892;6.906;2023-07-24T10:24:36;3.90;;;3.30;;
18716;SDS011;9487;50.892;6.906;2023-07-24T10:27:05;6.47;;;4.00;;
18716;SDS011;9487;50.892;6.906;2023-07-24T10:29:34;4.40;;;3.77;;
18716;SDS011;9487;50.892;6.906;2023-07-24T10:32:02;3.33;;;3.00;;
18716;SDS011;9487;50.892;6.906;2023-07-24T10:34:36;4.17;;;3.30;;
18716;SDS011;9487;50.892;6.906;2023-07-24T10:37:06;3.30;;;3.00;;
18716;SDS011;9487;50.892;6.906;2023-07-24T10:39:37;3.65;;;3.25;;
18716;SDS011;9487;50.892;6.906;2023-07-24T10:42:05;3.72;;;3.42;;
18716;SDS011;9487;50.892;6.906;2023-07-24T10:44:34;3.77;;;3.33;;
18716;SDS011;9487;50.892;6.906;2023-07-24T10:47:02;3.90;;;3.43;;
18716;SDS011;9487;50.892;6.906;2023-07-24T10:49:29;4.97;;;3.50;;
18716;SDS011;9487;50.892;6.906;2023-07-24T10:51:56;4.00;;;3.70;;
18716;SDS011;9487;50.892;6.906;2023-07-24T10:54:24;3.60;;;3.30;;
18716;SDS011;9487;50.892;6.906;2023-07-24T10:56:57;3.90;;;3.20;;
18716;SDS011;9487;50.892;6.906;2023-07-24T10:59:35;3.40;;;3.10;;
18716;SDS011;9487;50.892;6.906;2023-07-24T11:02:03;3.90;;;2.80;;
18716;SDS011;9487;50.892;6.906;2023-07-24T11:04:31;5.60;;;3.73;;
18716;SDS011;9487;50.892;6.906;2023-07-24T11:06:59;3.20;;;2.90;;
18716;SDS011;9487;50.892;6.906;2023-07-24T11:09:38;3.53;;;3.17;;
18716;SDS011;9487;50.892;6.906;2023-07-24T11:12:09;3.80;;;3.50;;
18716;SDS011;9487;50.892;6.906;2023-07-24T11:14:45;3.45;;;3.15;;
18716;SDS011;9487;50.892;6.906;2023-07-24T11:17:13;3.63;;;2.97;;
18716;SDS011;9487;50.892;6.906;2023-07-24T11:19:40;3.72;;;3.35;;
18716;SDS011;9487;50.892;6.906;2023-07-24T11:22:07;3.60;;;3.30;;
18716;SDS011;9487;50.892;6.906;2023-07-24T11:24:42;4.47;;;3.30;;
18716;SDS011;9487;50.892;6.906;2023-07-24T11:27:10;3.30;;;3.00;;
18716;SDS011;9487;50.892;6.906;2023-07-24T11:29:39;3.33;;;2.92;;
18716;SDS011;9487;50.892;6.906;2023-07-24T11:32:07;3.47;;;3.17;;
18716;SDS011;9487;50.892;6.906;2023-07-24T11:34:34;3.28;;;2.92;;
18716;SDS011;9487;50.892;6.906;2023-07-24T11:37:01;3.38;;;3.08;;
18716;SDS011;9487;50.892;6.906;2023-07-24T11:39:29;3.95;;;2.92;;
18716;SDS011;9487;50.892;6.906;2023-07-24T11:41:57;3.28;;;2.97;;
18716;SDS011;9487;50.892;6.906;2023-07-24T11:44:27;3.58;;;2.10;;
18716;SDS011;9487;50.892;6.906;2023-07-24T11:47:00;4.47;;;1.73;;
18716;SDS011;9487;50.892;6.906;2023-07-24T11:49:28;3.03;;;1.50;;
18716;SDS011;9487;50.892;6.906;2023-07-24T11:51:59;2.53;;;1.63;;
18716;SDS011;9487;50.892;6.906;2023-07-24T11:54:27;6.37;;;1.60;;
18716;SDS011;9487;50.892;6.906;2023-07-24T11:56:54;3.10;;;1.90;;
18716;SDS011;9487;50.892;6.906;2023-07-24T11:59:22;4.80;;;2.27;;
18716;SDS011;9487;50.892;6.906;2023-07-24T12:01:51;2.57;;;1.80;;
18716;SDS011;9487;50.892;6.906;2023-07-24T12:04:18;3.63;;;2.30;;
18716;SDS011;9487;50.892;6.906;2023-07-24T12:06:45;3.13;;;2.20;;
18716;SDS011;9487;50.892;6.906;2023-07-24T12:09:12;2.07;;;1.67;;
18716;SDS011;9487;50.892;6.906;2023-07-24T12:11:40;2.13;;;1.70;;
18716;SDS011;9487;50.892;6.906;2023-07-24T12:14:07;4.37;;;2.03;;
18716;SDS011;9487;50.892;6.906;2023-07-24T12:16:36;5.27;;;2.33;;
18716;SDS011;9487;50.892;6.906;2023-07-24T12:19:04;2.70;;;2.37;;
18716;SDS011;9487;50.892;6.906;2023-07-24T12:21:31;4.80;;;3.17;;
18716;SDS011;9487;50.892;6.906;2023-07-24T12:23:58;4.77;;;2.90;;
18716;SDS011;9487;50.892;6.906;2023-07-24T12:26:25;3.00;;;2.70;;
18716;SDS011;9487;50.892;6.906;2023-07-24T12:28:52;4.37;;;3.20;;
18716;SDS011;9487;50.892;6.906;2023-07-24T12:31:20;3.23;;;2.90;;
18716;SDS011;9487;50.892;6.906;2023-07-24T12:33:49;4.87;;;3.10;;
18716;SDS011;9487;50.892;6.906;2023-07-24T12:36:16;3.77;;;2.80;;
18716;SDS011;9487;50.892;6.906;2023-07-24T12:38:43;4.57;;;3.60;;
18716;SDS011;9487;50.892;6.906;2023-07-24T12:41:10;4.10;;;3.23;;
18716;SDS011;9487;50.892;6.906;2023-07-24T12:43:37;4.30;;;3.63;;
18716;SDS011;9487;50.892;6.906;2023-07-24T12:46:04;6.40;;;3.37;;
18716;SDS011;9487;50.892;6.906;2023-07-24T12:48:30;6.60;;;3.67;;
18716;SDS011;9487;50.892;6.906;2023-07-24T12:50:59;8.70;;;3.90;;
18716;SDS011;9487;50.892;6.906;2023-07-24T12:53:26;4.07;;;3.07;;
18716;SDS011;9487;50.892;6.906;2023-07-24T12:55:53;3.33;;;2.93;;
18716;SDS011;9487;50.892;6.906;2023-07-24T12:58:20;4.63;;;3.50;;
18716;SDS011;9487;50.892;6.906;2023-07-24T13:00:47;4.70;;;3.80;;
18716;SDS011;9487;50.892;6.906;2023-07-24T13:03:14;4.90;;;2.90;;
18716;SDS011;9487;50.892;6.906;2023-07-24T13:05:41;5.27;;;3.13;;
18716;SDS011;9487;50.892;6.906;2023-07-24T13:08:10;4.20;;;3.00;;
18716;SDS011;9487;50.892;6.906;2023-07-24T13:10:36;4.23;;;3.53;;
18716;SDS011;9487;50.892;6.906;2023-07-24T13:13:04;4.87;;;3.27;;
18716;SDS011;9487;50.892;6.906;2023-07-24T13:15:31;4.13;;;3.13;;
18716;SDS011;9487;50.892;6.906;2023-07-24T13:17:58;5.03;;;2.83;;
18716;SDS011;9487;50.892;6.906;2023-07-24T13:20:25;3.07;;;2.70;;
18716;SDS011;9487;50.892;6.906;2023-07-24T13:22:51;4.20;;;3.10;;
18716;SDS011;9487;50.892;6.906;2023-07-24T13:25:20;5.80;;;3.50;;
18716;SDS011;9487;50.892;6.906;2023-07-24T13:27:47;6.07;;;3.53;;
18716;SDS011;9487;50.892;6.906;2023-07-24T13:30:13;4.80;;;3.20;;
18716;SDS011;9487;50.892;6.906;2023-07-24T13:32:40;4.67;;;3.03;;
18716;SDS011;9487;50.892;6.906;2023-07-24T13:35:08;5.03;;;3.07;;
18716;SDS011;9487;50.892;6.906;2023-07-24T13:37:35;3.97;;;3.57;;
18716;SDS011;9487;50.892;6.906;2023-07-24T13:40:02;2.87;;;2.40;;
18716;SDS011;9487;50.892;6.906;2023-07-24T13:42:31;2.80;;;2.60;;
18716;SDS011;9487;50.892;6.906;2023-07-24T13:44:58;3.77;;;2.27;;
18716;SDS011;9487;50.892;6.906;2023-07-24T13:47:25;3.67;;;2.63;;
18716;SDS011;9487;50.892;6.906;2023-07-24T13:49:51;2.40;;;2.20;;
18716;SDS011;9487;50.892;6.906;2023-07-24T13:52:20;3.20;;;2.67;;
18716;SDS011;9487;50.892;6.906;2023-07-24T13:54:47;3.47;;;2.60;;
18716;SDS011;9487;50.892;6.906;2023-07-24T13:57:14;6.90;;;4.07;;
18716;SDS011;9487;50.892;6.906;2023-07-24T13:59:42;6.97;;;5.23;;
18716;SDS011;9487;50.892;6.906;2023-07-24T14:02:09;4.87;;;4.23;;
18716;SDS011;9487;50.892;6.906;2023-07-24T14:04:37;5.37;;;3.63;;
18716;SDS011;9487;50.892;6.906;2023-07-24T14:07:04;5.60;;;3.07;;
18716;SDS011;9487;50.892;6.906;2023-07-24T14:09:32;3.67;;;2.97;;
18716;SDS011;9487;50.892;6.906;2023-07-24T14:12:00;4.00;;;2.90;;
18716;SDS011;9487;50.892;6.906;2023-07-24T14:14:26;1.83;;;1.70;;
18716;SDS011;9487;50.892;6.906;2023-07-24T14:16:55;2.67;;;2.07;;
18716;SDS011;9487;50.892;6.906;2023-07-24T14:19:23;1.87;;;1.77;;
18716;SDS011;9487;50.892;6.906;2023-07-24T14:21:51;1.60;;;1.50;;
18716;SDS011;9487;50.892;6.906;2023-07-24T14:24:18;2.80;;;1.60;;
18716;SDS011;9487;50.892;6.906;2023-07-24T14:26:45;1.50;;;1.40;;
18716;SDS011;9487;50.892;6.906;2023-07-24T14:29:11;1.90;;;1.50;;
18716;SDS011;9487;50.892;6.906;2023-07-24T14:31:38;2.03;;;1.80;;
18716;SDS011;9487;50.892;6.906;2023-07-24T14:34:07;2.03;;;1.83;;
18716;SDS011;9487;50.892;6.906;2023-07-24T14:36:36;2.63;;;1.70;;
18716;SDS011;9487;50.892;6.906;2023-07-24T14:39:02;2.97;;;1.90;;
18716;SDS011;9487;50.892;6.906;2023-07-24T14:41:29;2.37;;;1.50;;
18716;SDS011;9487;50.892;6.906;2023-07-24T14:43:57;2.97;;;1.93;;
18716;SDS011;9487;50.892;6.906;2023-07-24T14:46:24;2.57;;;1.67;;
18716;SDS011;9487;50.892;6.906;2023-07-24T14:48:50;2.10;;;1.57;;
18716;SDS011;9487;50.892;6.906;2023-07-24T14:51:19;2.50;;;1.90;;
18716;SDS011;9487;50.892;6.906;2023-07-24T14:53:45;2.33;;;1.97;;
18716;SDS011;9487;50.892;6.906;2023-07-24T14:56:13;1.97;;;1.67;;
18716;SDS011;9487;50.892;6.906;2023-07-24T14:58:39;3.07;;;1.70;;
18716;SDS011;9487;50.892;6.906;2023-07-24T15:01:10;2.27;;;1.57;;
18716;SDS011;9487;50.892;6.906;2023-07-24T15:03:37;2.87;;;1.53;;